Time;durP1;ratioP1;P1;durP2;ratioP2;P2;SDS_P1;SDS_P2;PMS_P1;PMS_P2;Temp;Humidity;BMP_temperature;BMP_pressure;BME280_temperature;BME280_humidity;BME280_pressure;Samples;Min_cycle;Max_cycle;Signal;HPM_P1;HPM_P2
2023/07/09 00:01:00;;;;;;;3.47;0.70;;;16.40;99.90;;;;;;4993955;28;20226;-84
2023/07/09 00:03:31;;;;;;;3.20;0.73;;;16.50;99.90;;;;;;5011705;28;20206;-84
2023/07/09 00:06:03;;;;;;;4.68;0.80;;;16.50;99.90;;;;;;5013878;28;20204;-83
2023/07/09 00:08:36;;;;;;;2.08;0.70;;;16.60;99.90;;;;;;5006417;28;20255;-83
2023/07/09 00:11:07;;;;;;;1.40;0.47;;;16.70;99.90;;;;;;5013356;28;20210;-82
2023/07/09 00:13:38;;;;;;;3.60;0.60;;;16.70;99.90;;;;;;5007837;28;20194;-82
2023/07/09 00:16:17;;;;;;;1.25;0.65;;;16.80;99.90;;;;;;5012642;28;20244;-82
2023/07/09 00:18:49;;;;;;;2.63;0.57;;;16.70;99.90;;;;;;5012401;28;20285;-83
2023/07/09 00:21:22;;;;;;;1.70;0.45;;;16.80;99.90;;;;;;4998281;28;20292;-83
2023/07/09 00:23:53;;;;;;;2.60;0.73;;;16.90;99.80;;;;;;5010969;28;20221;-83
2023/07/09 00:26:26;;;;;;;2.72;0.60;;;17.00;99.60;;;;;;5012378;28;20547;-82
2023/07/09 00:28:57;;;;;;;1.58;0.50;;;17.00;98.90;;;;;;5011997;28;20281;-83
2023/07/09 00:31:30;;;;;;;2.30;0.70;;;17.00;98.10;;;;;;5012598;28;20556;-82
2023/07/09 00:34:02;;;;;;;1.30;0.40;;;17.00;98.70;;;;;;5009048;28;20210;-83
2023/07/09 00:36:34;;;;;;;1.58;0.60;;;17.10;97.90;;;;;;5011461;28;20205;-83
2023/07/09 00:39:07;;;;;;;1.30;0.60;;;17.10;97.40;;;;;;5012450;28;20280;-82
2023/07/09 00:41:40;;;;;;;1.27;0.57;;;17.10;97.70;;;;;;5001153;28;20309;-82
2023/07/09 00:44:33;;;;;;;1.50;0.60;;;17.20;96.70;;;;;;5003514;28;20200;-83
2023/07/09 00:47:29;;;;;;;1.10;0.55;;;17.30;97.30;;;;;;5007875;28;20204;-82
2023/07/09 00:50:18;;;;;;;1.98;0.70;;;17.40;95.30;;;;;;5011560;28;20221;-83
2023/07/09 00:52:55;;;;;;;1.00;0.70;;;17.40;95.10;;;;;;5006514;28;20231;-83
2023/07/09 00:55:29;;;;;;;1.30;0.60;;;17.40;95.90;;;;;;4992444;28;20236;-83
2023/07/09 00:58:03;;;;;;;3.05;1.50;;;17.50;95.20;;;;;;5001736;28;20198;-81
2023/07/09 01:00:42;;;;;;;1.00;0.80;;;17.60;94.70;;;;;;4992180;28;20567;-83
2023/07/09 01:03:17;;;;;;;0.90;0.40;;;17.60;94.30;;;;;;5005445;28;20569;-83
2023/07/09 01:05:51;;;;;;;1.98;0.50;;;17.50;94.50;;;;;;5010495;28;20208;-83
2023/07/09 01:08:23;;;;;;;1.40;0.52;;;17.50;94.20;;;;;;5011856;28;20260;-83
2023/07/09 01:10:54;;;;;;;0.55;0.38;;;17.60;94.40;;;;;;5002769;28;20666;-83
2023/07/09 01:13:26;;;;;;;2.00;0.55;;;17.70;93.90;;;;;;5004836;28;20212;-83
2023/07/09 01:15:58;;;;;;;1.58;0.65;;;17.80;93.90;;;;;;5009691;28;20205;-84
2023/07/09 01:18:32;;;;;;;2.05;0.52;;;17.80;93.90;;;;;;4999926;28;20198;-83
2023/07/09 01:21:15;;;;;;;1.98;0.60;;;17.90;94.00;;;;;;4992059;28;20230;-83
2023/07/09 01:23:46;;;;;;;1.27;0.38;;;18.10;93.80;;;;;;4991650;28;20195;-83
2023/07/09 01:26:21;;;;;;;0.88;0.40;;;18.20;92.60;;;;;;4995724;28;20269;-83
2023/07/09 01:28:52;;;;;;;2.28;0.40;;;18.20;92.40;;;;;;5009734;28;20197;-84
2023/07/09 01:31:23;;;;;;;1.42;0.50;;;18.10;92.00;;;;;;5010402;28;20593;-83
2023/07/09 01:33:54;;;;;;;0.70;0.55;;;18.10;92.40;;;;;;5008351;28;20198;-82
2023/07/09 01:36:29;;;;;;;1.65;0.52;;;18.20;93.00;;;;;;5002686;28;20220;-83
2023/07/09 01:39:00;;;;;;;2.58;0.57;;;18.30;92.10;;;;;;5010956;28;20546;-83
2023/07/09 01:41:34;;;;;;;1.63;0.65;;;18.30;92.00;;;;;;4991972;28;20222;-83
2023/07/09 01:44:05;;;;;;;1.33;0.57;;;18.20;91.90;;;;;;4991942;28;20202;-83
2023/07/09 01:46:36;;;;;;;1.88;0.57;;;18.20;91.80;;;;;;4994378;28;20201;-83
2023/07/09 01:49:08;;;;;;;1.70;0.63;;;18.20;91.50;;;;;;5011375;28;20691;-84
2023/07/09 01:51:42;;;;;;;1.40;0.70;;;18.30;92.30;;;;;;5009907;28;20693;-83
2023/07/09 01:54:13;;;;;;;1.15;0.40;;;18.50;91.50;;;;;;5011430;28;20198;-83
2023/07/09 01:56:45;;;;;;;1.08;0.60;;;18.50;90.80;;;;;;5010744;28;20198;-83
2023/07/09 01:59:16;;;;;;;2.05;0.60;;;18.70;90.50;;;;;;5010274;28;20244;-83
2023/07/09 02:01:47;;;;;;;1.33;0.80;;;18.80;90.90;;;;;;5004902;28;20229;-83
2023/07/09 02:04:20;;;;;;;1.95;0.75;;;18.80;90.20;;;;;;4991353;28;20191;-84
2023/07/09 02:06:53;;;;;;;2.55;0.60;;;18.50;89.10;;;;;;4990958;28;20662;-83
2023/07/09 02:09:24;;;;;;;2.63;0.80;;;18.40;89.80;;;;;;4991356;28;20209;-84
2023/07/09 02:11:55;;;;;;;2.90;1.05;;;18.30;89.80;;;;;;4992841;28;20433;-83
2023/07/09 02:14:27;;;;;;;2.47;0.82;;;18.40;90.40;;;;;;4995502;28;20199;-84
2023/07/09 02:16:58;;;;;;;3.95;0.85;;;18.40;89.70;;;;;;4991570;28;20485;-83
2023/07/09 02:19:30;;;;;;;2.25;0.70;;;18.50;90.10;;;;;;4999187;28;20205;-84
2023/07/09 02:22:04;;;;;;;2.28;0.75;;;18.60;88.40;;;;;;5010616;28;20237;-84
2023/07/09 02:24:35;;;;;;;5.75;1.15;;;18.50;88.80;;;;;;5011646;28;20563;-85
2023/07/09 02:27:10;;;;;;;4.82;1.05;;;18.50;88.30;;;;;;5015758;28;20198;-83
2023/07/09 02:29:41;;;;;;;3.92;0.77;;;18.50;88.10;;;;;;5012056;28;20222;-83
2023/07/09 02:32:15;;;;;;;1.63;0.60;;;18.40;87.90;;;;;;4995478;28;20281;-83
2023/07/09 02:34:48;;;;;;;2.42;1.33;;;18.50;87.60;;;;;;4994687;28;20554;-83
2023/07/09 02:37:22;;;;;;;1.92;1.00;;;18.50;88.30;;;;;;4999691;28;20287;-83
2023/07/09 02:39:54;;;;;;;3.72;1.02;;;18.50;88.20;;;;;;4996735;28;20202;-83
2023/07/09 02:42:25;;;;;;;2.05;0.90;;;18.60;88.00;;;;;;4994655;28;20709;-83
2023/07/09 02:44:56;;;;;;;3.90;2.78;;;18.80;87.50;;;;;;4998424;28;20616;-84
2023/07/09 02:47:28;;;;;;;2.15;0.70;;;18.90;86.00;;;;;;5010303;28;20661;-84
2023/07/09 02:49:59;;;;;;;1.75;0.70;;;18.90;85.90;;;;;;5013691;28;20226;-85
2023/07/09 02:52:32;;;;;;;1.90;0.60;;;19.00;85.30;;;;;;5001847;28;20234;-81
2023/07/09 02:55:03;;;;;;;1.00;0.68;;;19.00;85.40;;;;;;4994467;28;20206;-82
2023/07/09 02:57:34;;;;;;;2.22;0.70;;;18.90;84.40;;;;;;4994449;28;20207;-82
2023/07/09 03:00:09;;;;;;;1.70;0.60;;;18.90;85.70;;;;;;4994601;28;20202;-83
2023/07/09 03:02:40;;;;;;;2.95;1.00;;;19.00;84.80;;;;;;5005462;28;20250;-83
2023/07/09 03:05:12;;;;;;;2.28;0.60;;;19.20;84.10;;;;;;5014129;28;20661;-82
2023/07/09 03:07:45;;;;;;;2.10;0.80;;;19.00;83.70;;;;;;5013366;28;20256;-82
2023/07/09 03:10:16;;;;;;;1.55;0.60;;;19.10;85.00;;;;;;5012722;28;20280;-83
2023/07/09 03:12:47;;;;;;;2.80;0.90;;;19.10;84.10;;;;;;5013664;28;20206;-82
2023/07/09 03:15:19;;;;;;;1.75;0.60;;;19.20;83.50;;;;;;5013500;28;20633;-82
2023/07/09 03:17:50;;;;;;;1.77;0.70;;;19.10;83.10;;;;;;5013230;28;20684;-82
2023/07/09 03:20:21;;;;;;;2.10;0.95;;;19.10;83.20;;;;;;5012217;28;20204;-81
2023/07/09 03:22:57;;;;;;;1.60;0.82;;;19.20;83.80;;;;;;5013290;28;20234;-82
2023/07/09 03:25:28;;;;;;;3.42;0.70;;;19.30;83.30;;;;;;5013324;28;20201;-82
2023/07/09 03:27:59;;;;;;;1.55;0.63;;;19.40;83.40;;;;;;4999266;28;20670;-83
2023/07/09 03:30:30;;;;;;;2.80;1.15;;;19.40;81.70;;;;;;5012785;28;20233;-82
2023/07/09 03:33:04;;;;;;;2.70;0.70;;;19.20;81.80;;;;;;5013055;28;20208;-82
2023/07/09 03:35:36;;;;;;;2.05;1.15;;;19.20;81.80;;;;;;5013036;28;20200;-82
2023/07/09 03:38:09;;;;;;;1.80;1.00;;;19.10;81.60;;;;;;5012503;28;20198;-83
2023/07/09 03:40:41;;;;;;;5.75;3.28;;;19.20;83.10;;;;;;5013476;28;20224;-83
2023/07/09 03:43:14;;;;;;;4.45;1.50;;;19.20;81.80;;;;;;5009635;28;20241;-82
2023/07/09 03:45:47;;;;;;;3.97;1.88;;;19.20;81.80;;;;;;4993419;28;20194;-83
2023/07/09 03:48:19;;;;;;;2.78;0.95;;;19.00;82.50;;;;;;4993372;28;20658;-81
2023/07/09 03:50:50;;;;;;;3.47;1.63;;;19.00;83.00;;;;;;4993631;28;20201;-82
2023/07/09 03:53:23;;;;;;;7.22;1.13;;;19.00;83.20;;;;;;5002984;28;20617;-83
2023/07/09 03:55:59;;;;;;;5.65;1.27;;;18.90;82.90;;;;;;5012671;28;20204;-83
2023/07/09 03:58:30;;;;;;;1.92;0.63;;;18.90;83.50;;;;;;5012614;28;20260;-82
2023/07/09 04:01:01;;;;;;;2.25;0.70;;;18.80;83.50;;;;;;5002264;28;20234;-81
2023/07/09 04:03:32;;;;;;;2.20;0.80;;;18.90;84.00;;;;;;5008949;28;20725;-82
2023/07/09 04:06:04;;;;;;;2.70;0.50;;;18.80;83.80;;;;;;5012469;28;20206;-82
2023/07/09 04:08:37;;;;;;;1.95;0.80;;;18.80;83.70;;;;;;5011305;28;20202;-82
2023/07/09 04:11:11;;;;;;;2.20;0.63;;;18.80;84.60;;;;;;5012818;28;20202;-82
2023/07/09 04:13:42;;;;;;;1.17;0.60;;;18.80;84.40;;;;;;5014205;28;20217;-82
2023/07/09 04:16:14;;;;;;;1.58;0.50;;;18.80;84.50;;;;;;5017998;28;20213;-83
2023/07/09 04:18:45;;;;;;;2.22;0.52;;;18.80;84.60;;;;;;5011891;28;20205;-82
2023/07/09 04:21:16;;;;;;;1.52;0.50;;;18.90;85.50;;;;;;5011937;28;20217;-83
2023/07/09 04:23:52;;;;;;;2.30;0.70;;;18.90;84.10;;;;;;4997334;28;20198;-83
2023/07/09 04:26:24;;;;;;;1.52;0.65;;;18.90;83.80;;;;;;4992341;28;20205;-81
2023/07/09 04:28:57;;;;;;;1.45;0.50;;;18.90;83.50;;;;;;4995888;28;20249;-82
2023/07/09 04:31:28;;;;;;;0.90;0.40;;;18.80;83.80;;;;;;5003319;28;20577;-82
2023/07/09 04:33:59;;;;;;;2.40;0.85;;;18.80;84.10;;;;;;4999173;28;20268;-82
2023/07/09 04:36:31;;;;;;;2.35;0.80;;;18.90;84.10;;;;;;5012045;28;20193;-86
2023/07/09 04:39:04;;;;;;;2.25;0.60;;;18.80;84.10;;;;;;5009349;28;20218;-85
2023/07/09 04:41:35;;;;;;;2.13;0.63;;;18.70;85.00;;;;;;5001939;28;20265;-84
2023/07/09 04:44:07;;;;;;;1.42;0.45;;;18.70;85.30;;;;;;5025293;28;20607;-86
2023/07/09 04:46:39;;;;;;;3.42;0.52;;;18.80;85.40;;;;;;5029616;28;20198;-83
2023/07/09 04:49:12;;;;;;;1.98;0.77;;;18.70;85.40;;;;;;5018891;28;20645;-82
2023/07/09 04:51:43;;;;;;;1.30;0.50;;;18.80;85.50;;;;;;5012809;28;20297;-83
2023/07/09 04:54:16;;;;;;;2.53;0.75;;;18.70;86.10;;;;;;5007367;28;20205;-83
2023/07/09 04:56:47;;;;;;;1.67;0.55;;;18.70;85.80;;;;;;4997403;28;20202;-84
2023/07/09 04:59:19;;;;;;;0.88;0.52;;;18.70;85.90;;;;;;5008012;28;20202;-83
2023/07/09 05:01:53;;;;;;;2.40;0.55;;;18.80;86.80;;;;;;5008396;28;20221;-84
2023/07/09 05:04:25;;;;;;;1.30;0.68;;;18.80;85.80;;;;;;5010583;28;20194;-85
2023/07/09 05:06:56;;;;;;;0.85;0.40;;;18.80;85.80;;;;;;5011842;28;20688;-84
2023/07/09 05:09:29;;;;;;;2.13;0.60;;;18.90;86.40;;;;;;5006597;28;20276;-83
2023/07/09 05:12:00;;;;;;;1.25;0.50;;;19.00;86.50;;;;;;5005830;28;20208;-84
2023/07/09 05:14:31;;;;;;;1.67;0.50;;;19.00;86.00;;;;;;4991927;28;20213;-82
2023/07/09 05:17:04;;;;;;;0.73;0.40;;;18.90;86.50;;;;;;4998656;28;20198;-83
2023/07/09 05:19:37;;;;;;;1.85;0.65;;;18.80;86.20;;;;;;5001080;28;20198;-84
2023/07/09 05:22:09;;;;;;;1.40;0.68;;;18.70;86.50;;;;;;4992461;28;20249;-84
2023/07/09 05:24:45;;;;;;;1.50;0.60;;;18.60;87.10;;;;;;5009560;28;20194;-83
2023/07/09 05:27:18;;;;;;;1.60;0.70;;;18.70;87.00;;;;;;4991980;28;20202;-83
2023/07/09 05:29:49;;;;;;;1.90;0.52;;;18.70;87.20;;;;;;4997730;28;20206;-82
2023/07/09 05:32:21;;;;;;;3.13;0.60;;;18.60;87.50;;;;;;5010291;28;20272;-83
2023/07/09 05:34:52;;;;;;;0.82;0.40;;;18.60;88.10;;;;;;5009826;28;20197;-83
2023/07/09 05:37:23;;;;;;;1.80;0.75;;;18.60;88.50;;;;;;5010216;28;20330;-83
2023/07/09 05:39:56;;;;;;;1.30;0.55;;;18.60;89.00;;;;;;5008938;28;20583;-83
2023/07/09 05:42:30;;;;;;;1.00;0.82;;;18.60;88.80;;;;;;5010576;28;20305;-83
2023/07/09 05:45:01;;;;;;;1.73;0.50;;;18.60;88.40;;;;;;5011248;28;20688;-83
2023/07/09 05:47:32;;;;;;;0.88;0.47;;;18.60;88.70;;;;;;5006980;28;20201;-84
2023/07/09 05:50:04;;;;;;;1.10;0.50;;;18.60;88.60;;;;;;4999115;28;20199;-84
2023/07/09 05:52:35;;;;;;;1.63;0.50;;;18.60;88.70;;;;;;5008970;28;20238;-83
2023/07/09 05:55:10;;;;;;;1.08;0.60;;;18.60;89.60;;;;;;5009756;28;20200;-84
2023/07/09 05:57:41;;;;;;;4.20;0.60;;;18.60;89.70;;;;;;5011773;28;20669;-84
2023/07/09 06:00:13;;;;;;;1.90;0.70;;;18.60;89.70;;;;;;5016454;28;20197;-87
2023/07/09 06:02:45;;;;;;;1.27;0.60;;;18.60;89.90;;;;;;5015052;28;20226;-86
2023/07/09 06:05:16;;;;;;;2.50;0.95;;;18.60;90.00;;;;;;5003086;28;20206;-87
2023/07/09 06:07:47;;;;;;;1.90;1.00;;;18.60;89.70;;;;;;5015172;28;20201;-87
2023/07/09 06:10:21;;;;;;;2.42;1.20;;;18.60;90.00;;;;;;5010830;28;20202;-84
2023/07/09 06:12:52;;;;;;;1.98;0.93;;;18.60;90.20;;;;;;5006519;28;20213;-83
2023/07/09 06:15:23;;;;;;;1.90;0.57;;;18.60;90.50;;;;;;5006713;28;20202;-83
2023/07/09 06:17:54;;;;;;;1.67;0.65;;;18.50;90.20;;;;;;5007739;28;20201;-83
2023/07/09 06:20:25;;;;;;;1.55;0.60;;;18.50;90.50;;;;;;5015024;28;20198;-83
2023/07/09 06:22:57;;;;;;;0.98;0.47;;;18.60;90.70;;;;;;5007326;28;20229;-84
2023/07/09 06:25:30;;;;;;;1.73;0.60;;;18.70;90.70;;;;;;5014860;28;20558;-82
2023/07/09 06:28:01;;;;;;;1.55;0.68;;;18.70;90.70;;;;;;5014587;28;20550;-82
2023/07/09 06:30:33;;;;;;;1.85;0.63;;;18.80;91.20;;;;;;5013633;28;20747;-83
2023/07/09 06:33:07;;;;;;;2.67;0.70;;;18.70;91.10;;;;;;5012046;28;20202;-83
2023/07/09 06:35:39;;;;;;;2.00;0.70;;;18.60;90.90;;;;;;5014229;28;20252;-83
2023/07/09 06:38:13;;;;;;;1.00;0.52;;;18.40;91.40;;;;;;5014506;28;20209;-84
2023/07/09 06:40:46;;;;;;;0.90;0.60;;;18.40;91.50;;;;;;4997306;28;20202;-84
2023/07/09 06:43:17;;;;;;;2.50;0.90;;;18.40;91.70;;;;;;4995625;28;20232;-85
2023/07/09 06:45:58;;;;;;;2.88;1.00;;;18.20;92.00;;;;;;5006765;28;20194;-85
2023/07/09 06:48:31;;;;;;;1.38;1.00;;;18.20;92.40;;;;;;5014517;28;20683;-85
2023/07/09 06:51:03;;;;;;;1.15;0.80;;;18.20;92.70;;;;;;5011835;28;20202;-84
2023/07/09 06:53:35;;;;;;;4.22;0.70;;;18.10;92.90;;;;;;5007072;28;20677;-85
2023/07/09 06:56:08;;;;;;;1.50;1.05;;;18.00;93.00;;;;;;5014202;28;20204;-85
2023/07/09 06:58:40;;;;;;;1.75;0.98;;;17.90;93.20;;;;;;5014820;28;20205;-84
2023/07/09 07:01:12;;;;;;;1.70;1.10;;;17.90;93.20;;;;;;5014392;28;20194;-83
2023/07/09 07:03:43;;;;;;;4.13;2.05;;;17.80;93.30;;;;;;4994301;28;20222;-85
2023/07/09 07:06:16;;;;;;;1.27;0.80;;;17.70;93.50;;;;;;4995448;28;20206;-84
2023/07/09 07:08:47;;;;;;;1.33;1.08;;;17.70;93.70;;;;;;5001436;28;20277;-83
2023/07/09 07:11:22;;;;;;;1.67;0.75;;;17.60;94.00;;;;;;4999373;28;20202;-84
2023/07/09 07:13:54;;;;;;;1.08;0.60;;;17.60;94.30;;;;;;5013874;28;20213;-85
2023/07/09 07:16:25;;;;;;;1.80;0.88;;;17.60;94.80;;;;;;4998164;28;20246;-84
2023/07/09 07:18:57;;;;;;;1.55;0.85;;;17.50;95.00;;;;;;5012276;28;20209;-85
2023/07/09 07:21:28;;;;;;;1.50;1.05;;;17.60;95.10;;;;;;5007937;28;20202;-84
2023/07/09 07:24:00;;;;;;;1.65;1.13;;;17.50;95.30;;;;;;5011948;28;20234;-84
2023/07/09 07:26:33;;;;;;;1.10;0.90;;;17.50;95.50;;;;;;5001336;28;20190;-86
2023/07/09 07:29:04;;;;;;;7.78;3.45;;;17.50;95.60;;;;;;5019339;28;20261;-87
2023/07/09 07:31:35;;;;;;;1.13;0.68;;;17.40;95.70;;;;;;5019626;28;20197;-86
2023/07/09 07:34:06;;;;;;;1.27;1.00;;;17.50;96.00;;;;;;5017449;28;20626;-85
2023/07/09 07:36:37;;;;;;;5.05;2.22;;;17.40;96.20;;;;;;5012296;28;20186;-84
2023/07/09 07:39:08;;;;;;;3.92;1.90;;;17.30;96.30;;;;;;5016018;28;20202;-85
2023/07/09 07:41:41;;;;;;;4.65;2.90;;;17.30;96.60;;;;;;5000667;28;20199;-85
2023/07/09 07:44:13;;;;;;;1.38;1.23;;;17.40;96.70;;;;;;5012045;28;20226;-85
2023/07/09 07:46:44;;;;;;;3.20;1.90;;;17.30;96.80;;;;;;5013400;28;20212;-85
2023/07/09 07:49:15;;;;;;;3.17;2.22;;;17.20;97.00;;;;;;5014303;28;20256;-84
2023/07/09 07:51:48;;;;;;;2.58;2.05;;;17.20;97.00;;;;;;4997623;28;20559;-86
2023/07/09 07:54:22;;;;;;;1.70;1.42;;;17.20;97.00;;;;;;4996291;28;20202;-86
2023/07/09 07:56:55;;;;;;;3.08;2.08;;;17.10;97.40;;;;;;5008795;28;20197;-84
2023/07/09 07:59:27;;;;;;;2.42;1.73;;;17.10;97.50;;;;;;5000829;28;20202;-84
2023/07/09 08:01:58;;;;;;;3.13;1.67;;;17.10;97.60;;;;;;5007027;28;20208;-85
2023/07/09 08:04:30;;;;;;;3.17;1.23;;;17.00;97.70;;;;;;5010461;28;20198;-85
2023/07/09 08:07:01;;;;;;;2.58;1.30;;;17.00;98.10;;;;;;5007631;28;20213;-84
2023/07/09 08:09:32;;;;;;;1.80;1.00;;;17.00;98.20;;;;;;5012605;28;20265;-84
2023/07/09 08:12:09;;;;;;;1.80;1.10;;;17.00;98.30;;;;;;5009373;28;20201;-83
2023/07/09 08:14:41;;;;;;;2.60;1.40;;;17.00;98.50;;;;;;5010958;28;20209;-84
2023/07/09 08:17:13;;;;;;;1.73;1.38;;;16.90;98.90;;;;;;4998924;28;20202;-82
2023/07/09 08:19:52;;;;;;;2.13;1.55;;;16.90;98.80;;;;;;5016255;28;20633;-84
2023/07/09 08:22:23;;;;;;;2.30;1.70;;;16.90;99.30;;;;;;4996834;28;20211;-84
2023/07/09 08:24:55;;;;;;;1.65;1.40;;;16.80;99.70;;;;;;4992685;28;20260;-84
2023/07/09 08:27:28;;;;;;;2.70;1.38;;;16.80;99.70;;;;;;5002869;28;20194;-83
2023/07/09 08:29:59;;;;;;;2.97;1.20;;;16.80;99.80;;;;;;5012992;28;20205;-84
2023/07/09 08:32:30;;;;;;;1.88;1.20;;;16.80;99.90;;;;;;4997622;28;20683;-85
2023/07/09 08:35:01;;;;;;;1.90;1.30;;;16.70;99.90;;;;;;5008152;28;20203;-85
2023/07/09 08:37:32;;;;;;;1.08;0.98;;;16.70;99.90;;;;;;5003232;28;20194;-84
2023/07/09 08:40:04;;;;;;;1.90;1.48;;;16.80;99.90;;;;;;5011962;28;20190;-83
2023/07/09 08:42:42;;;;;;;3.92;1.17;;;16.80;99.90;;;;;;5008164;28;20222;-86
2023/07/09 08:45:27;;;;;;;2.92;1.45;;;16.70;99.90;;;;;;5007984;28;20229;-85
2023/07/09 08:48:07;;;;;;;2.50;1.70;;;16.60;99.90;;;;;;4996088;28;20301;-84
2023/07/09 08:50:43;;;;;;;3.72;1.42;;;16.60;99.90;;;;;;5004058;28;20206;-84
2023/07/09 08:53:22;;;;;;;3.45;1.50;;;16.60;99.90;;;;;;5009342;28;20221;-84
2023/07/09 08:55:54;;;;;;;4.10;1.98;;;16.50;99.90;;;;;;5002724;28;20650;-83
2023/07/09 08:58:31;;;;;;;3.05;1.50;;;16.50;99.90;;;;;;4997592;28;20194;-84
2023/07/09 09:01:05;;;;;;;2.97;1.58;;;16.50;99.90;;;;;;5006342;28;20187;-84
2023/07/09 09:03:43;;;;;;;3.42;1.70;;;16.50;99.90;;;;;;5001371;28;20240;-84
2023/07/09 09:06:16;;;;;;;1.98;1.27;;;16.50;99.90;;;;;;5010689;28;20189;-84
2023/07/09 09:08:59;;;;;;;3.90;2.20;;;16.50;99.90;;;;;;5010826;28;20205;-86
2023/07/09 09:11:42;;;;;;;2.05;1.48;;;16.50;99.90;;;;;;5010281;28;20676;-88
2023/07/09 09:14:27;;;;;;;3.08;1.70;;;16.40;99.90;;;;;;5012068;28;20197;-85
2023/07/09 09:17:01;;;;;;;2.60;1.80;;;16.40;99.90;;;;;;5024697;28;20583;-86
2023/07/09 09:19:37;;;;;;;3.92;3.30;;;16.30;99.90;;;;;;5020951;28;20194;-86
2023/07/09 09:22:13;;;;;;;4.30;2.47;;;16.20;99.90;;;;;;4996712;28;20194;-86
2023/07/09 09:25:02;;;;;;;4.07;2.45;;;16.10;99.90;;;;;;5003277;28;20224;-84
2023/07/09 09:27:33;;;;;;;4.30;2.15;;;16.10;99.90;;;;;;5008654;28;20204;-85
2023/07/09 09:30:08;;;;;;;2.58;1.90;;;16.10;99.90;;;;;;5011538;28;20543;-84
2023/07/09 09:32:45;;;;;;;5.97;2.17;;;16.00;99.90;;;;;;5000161;28;20748;-84
2023/07/09 09:35:18;;;;;;;2.58;1.80;;;16.10;99.90;;;;;;5003206;28;20736;-85
2023/07/09 09:37:55;;;;;;;3.53;1.50;;;16.10;99.90;;;;;;5011341;28;20292;-85
2023/07/09 09:40:26;;;;;;;3.15;1.77;;;16.00;99.90;;;;;;5006499;28;20715;-83
2023/07/09 09:43:00;;;;;;;2.47;1.55;;;16.00;99.90;;;;;;5010987;28;20228;-84
2023/07/09 09:45:38;;;;;;;3.78;1.80;;;16.10;99.90;;;;;;5012201;28;20198;-84
2023/07/09 09:48:18;;;;;;;2.50;1.20;;;16.10;99.90;;;;;;5028888;28;20232;-86
2023/07/09 09:50:50;;;;;;;2.55;1.30;;;16.10;99.90;;;;;;5025353;28;20267;-84
2023/07/09 09:53:24;;;;;;;3.00;1.73;;;16.00;99.90;;;;;;5012540;28;20226;-85
2023/07/09 09:55:58;;;;;;;1.70;1.23;;;16.00;99.90;;;;;;5004723;28;20195;-86
2023/07/09 09:58:32;;;;;;;3.30;1.40;;;15.90;99.90;;;;;;4994162;28;20285;-85
2023/07/09 10:01:05;;;;;;;2.88;1.70;;;15.80;99.90;;;;;;4997570;28;20196;-84
2023/07/09 10:03:40;;;;;;;1.67;1.25;;;15.70;99.90;;;;;;5005217;28;20230;-85
2023/07/09 10:06:19;;;;;;;2.40;1.40;;;15.70;99.90;;;;;;5006559;28;20190;-86
2023/07/09 10:09:01;;;;;;;2.20;1.30;;;15.70;99.90;;;;;;4999789;28;20201;-85
2023/07/09 10:11:43;;;;;;;2.15;1.25;;;15.80;99.90;;;;;;4992241;28;20695;-84
2023/07/09 10:14:26;;;;;;;3.33;1.55;;;15.90;99.90;;;;;;5007014;28;20199;-83
2023/07/09 10:17:09;;;;;;;2.08;1.33;;;15.90;99.90;;;;;;5001170;28;20213;-83
2023/07/09 10:19:52;;;;;;;2.40;1.40;;;15.90;99.90;;;;;;5016785;28;20198;-85
2023/07/09 10:22:54;;;;;;;2.45;1.35;;;15.90;99.90;;;;;;5021116;28;20254;-87
2023/07/09 10:25:39;;;;;;;1.95;1.50;;;15.90;99.90;;;;;;5003185;28;20194;-85
2023/07/09 10:28:51;;;;;;;3.08;1.60;;;15.90;99.90;;;;;;5020954;28;20240;-85
2023/07/09 10:31:33;;;;;;;1.85;1.58;;;15.80;99.90;;;;;;4991395;28;20207;-85
2023/07/09 10:34:36;;;;;;;3.45;1.70;;;15.80;99.90;;;;;;5002968;28;20194;-86
2023/07/09 10:37:50;;;;;;;3.53;2.33;;;15.80;99.90;;;;;;5014130;28;20320;-82
2023/07/09 10:40:57;;;;;;;3.50;1.98;;;15.80;99.90;;;;;;5019902;28;20190;-84
2023/07/09 10:43:44;;;;;;;3.15;1.63;;;15.80;99.90;;;;;;5018729;28;20218;-86
2023/07/09 10:52:15;;;;;;;3.05;1.55;;;15.70;99.90;;;;;;5022037;28;20218;-88
2023/07/09 10:55:01;;;;;;;3.33;1.67;;;15.60;99.90;;;;;;5006954;28;20194;-85
2023/07/09 10:57:51;;;;;;;3.30;1.63;;;15.60;99.90;;;;;;5024160;28;20198;-86
2023/07/09 11:00:28;;;;;;;2.80;1.40;;;15.60;99.90;;;;;;5023015;28;20212;-87
2023/07/09 11:03:09;;;;;;;3.78;1.35;;;15.50;99.90;;;;;;5020683;28;20193;-85
2023/07/09 11:05:43;;;;;;;3.13;1.40;;;15.50;99.90;;;;;;5012271;28;20205;-85
2023/07/09 11:08:21;;;;;;;3.17;1.50;;;15.40;99.90;;;;;;4995246;28;20556;-83
2023/07/09 11:10:56;;;;;;;4.57;1.60;;;15.40;99.90;;;;;;5014352;28;20198;-83
2023/07/09 11:13:34;;;;;;;1.88;1.42;;;15.40;99.90;;;;;;5014404;28;20232;-82
2023/07/09 11:16:09;;;;;;;3.10;1.52;;;15.40;99.90;;;;;;5013887;28;20201;-82
2023/07/09 11:18:40;;;;;;;2.67;1.55;;;15.50;99.90;;;;;;5015447;28;20214;-82
2023/07/09 11:21:19;;;;;;;3.13;1.60;;;15.50;99.90;;;;;;5015302;28;20573;-84
2023/07/09 11:23:53;;;;;;;2.40;2.00;;;15.40;99.90;;;;;;4997768;28;20234;-83
2023/07/09 11:26:29;;;;;;;2.25;1.40;;;15.40;99.90;;;;;;5003027;28;20198;-82
2023/07/09 11:29:17;;;;;;;4.03;1.40;;;15.30;99.90;;;;;;5006678;28;20296;-83
2023/07/09 11:31:49;;;;;;;2.42;1.60;;;15.20;99.90;;;;;;5013720;28;20212;-84
2023/07/09 11:34:22;;;;;;;1.55;1.40;;;15.20;99.90;;;;;;5014935;28;20216;-83
2023/07/09 11:37:01;;;;;;;2.08;1.10;;;15.20;99.90;;;;;;5014685;28;20713;-83
2023/07/09 11:39:34;;;;;;;1.90;1.20;;;15.20;99.90;;;;;;5007350;28;20213;-83
2023/07/09 11:42:06;;;;;;;1.15;1.00;;;15.20;99.90;;;;;;4995756;28;20199;-82
2023/07/09 11:44:48;;;;;;;1.50;1.13;;;15.10;99.90;;;;;;5011915;28;20268;-85
2023/07/09 11:47:24;;;;;;;1.55;1.10;;;15.20;99.90;;;;;;5014056;28;20293;-83
2023/07/09 11:49:59;;;;;;;1.38;1.00;;;15.20;99.90;;;;;;5013502;28;20213;-84
2023/07/09 11:52:36;;;;;;;1.95;1.25;;;15.20;99.90;;;;;;5013727;28;20608;-84
2023/07/09 11:55:27;;;;;;;2.10;1.38;;;15.20;99.90;;;;;;5014187;28;20202;-83
2023/07/09 11:57:59;;;;;;;2.13;1.20;;;15.20;99.90;;;;;;5008260;28;20707;-84
2023/07/09 12:00:33;;;;;;;1.63;1.10;;;15.30;99.90;;;;;;5011695;28;20201;-84
2023/07/09 12:03:06;;;;;;;1.85;1.10;;;15.30;99.90;;;;;;5013775;28;20739;-83
2023/07/09 12:05:38;;;;;;;1.73;0.93;;;15.30;99.90;;;;;;5009784;28;20233;-83
2023/07/09 12:08:15;;;;;;;3.25;1.30;;;15.30;99.90;;;;;;5012876;28;20304;-81
2023/07/09 12:10:47;;;;;;;2.70;1.17;;;15.30;99.90;;;;;;4993789;28;20226;-83
2023/07/09 12:13:19;;;;;;;3.58;1.45;;;15.30;99.90;;;;;;4994207;28;20784;-82
2023/07/09 12:15:49;;;;;;;1.92;1.20;;;15.20;99.90;;;;;;5001174;28;20284;-83
2023/07/09 12:18:20;;;;;;;2.00;1.40;;;15.20;99.90;;;;;;5005710;28;20207;-83
2023/07/09 12:20:54;;;;;;;2.88;1.40;;;15.10;99.90;;;;;;4992792;28;20203;-83
2023/07/09 12:23:32;;;;;;;1.63;1.20;;;15.10;99.90;;;;;;4993990;28;20198;-82
2023/07/09 12:26:05;;;;;;;3.85;1.10;;;15.10;99.90;;;;;;4997677;28;20199;-84
2023/07/09 12:28:40;;;;;;;2.05;1.20;;;15.00;99.90;;;;;;4993024;28;20202;-84
2023/07/09 12:31:17;;;;;;;2.67;1.10;;;14.90;99.90;;;;;;4996040;28;20565;-84
2023/07/09 12:33:53;;;;;;;1.98;0.90;;;14.90;99.90;;;;;;5012125;28;20281;-84
2023/07/09 12:36:26;;;;;;;1.73;1.10;;;14.90;99.90;;;;;;5007707;28;20190;-84
2023/07/09 12:39:03;;;;;;;2.13;1.20;;;14.90;99.90;;;;;;4999837;28;20202;-83
2023/07/09 12:41:38;;;;;;;2.03;1.08;;;14.90;99.90;;;;;;4999775;28;20256;-83
2023/07/09 12:44:14;;;;;;;2.33;1.23;;;14.90;99.90;;;;;;5001776;28;20232;-84
2023/07/09 12:46:45;;;;;;;1.60;1.05;;;14.90;99.90;;;;;;4998051;28;20198;-83
2023/07/09 12:49:25;;;;;;;2.47;1.40;;;14.90;99.90;;;;;;5007316;28;20539;-84
2023/07/09 12:51:58;;;;;;;2.08;1.17;;;14.90;99.90;;;;;;5010508;28;20657;-84
2023/07/09 12:54:32;;;;;;;1.58;1.00;;;14.90;99.90;;;;;;5001345;28;20190;-84
2023/07/09 12:57:12;;;;;;;3.10;1.40;;;14.90;99.90;;;;;;4994353;28;20206;-83
2023/07/09 12:59:43;;;;;;;2.03;1.20;;;14.70;99.90;;;;;;5004445;28;20198;-83
2023/07/09 13:02:21;;;;;;;3.53;1.13;;;14.70;99.90;;;;;;5011484;28;20198;-83
2023/07/09 13:05:02;;;;;;;2.13;1.30;;;14.70;99.90;;;;;;5005038;28;20225;-83
2023/07/09 13:07:38;;;;;;;1.77;1.02;;;14.60;99.90;;;;;;5009611;28;20204;-84
2023/07/09 13:10:19;;;;;;;1.52;0.90;;;14.70;99.90;;;;;;5006771;28;20194;-81
2023/07/09 13:12:53;;;;;;;1.80;1.05;;;14.80;99.90;;;;;;5007236;28;20568;-84
2023/07/09 13:15:31;;;;;;;1.33;0.90;;;14.80;99.90;;;;;;5010796;28;20201;-84
2023/07/09 13:18:05;;;;;;;1.08;0.90;;;14.90;99.90;;;;;;5003630;28;20198;-83
2023/07/09 13:20:40;;;;;;;1.20;1.00;;;15.00;99.90;;;;;;5011929;28;20670;-84
2023/07/09 13:23:14;;;;;;;2.90;1.27;;;15.00;99.90;;;;;;5005138;28;20574;-83
2023/07/09 13:25:48;;;;;;;2.13;1.10;;;15.00;99.90;;;;;;5005724;28;20228;-83
2023/07/09 13:28:26;;;;;;;1.25;0.73;;;15.10;99.90;;;;;;5002026;28;20711;-83
2023/07/09 13:30:59;;;;;;;1.90;1.00;;;15.10;99.90;;;;;;4997751;28;20197;-84